Terminal Aerodrome Forecast
Issued by NWS

Home | Current Version | Previous Version | Text Only | Print | Product List | Glossary On
Versions: 1 2 3 4 5 6 7 8 9 10 11 12 13 14 15 16
000
FTUS46 KSEW 222300
TAFBFI
TAF
KBFI 222320Z 2300/2324 21003KT P6SM SCT035 BKN100 OVC200
     FM230600 VRB04KT P6SM VCSH BKN035 BKN070 OVC120
     FM231200 12005KT P6SM -SHRA OVC035
     FM232100 18007KT P6SM -RA OVC030=

USA.gov is the U.S. government's official web portal to all federal, state and local government web resources and services.